sensor_id;sensor_type;location;lat;lon;timestamp;P1;durP1;ratioP1;P2;durP2;ratioP2
33206;SDS011;19565;46.602;11.534;2024-01-30T00:00:08;13.57;;;12.87;;
33206;SDS011;19565;46.602;11.534;2024-01-30T00:02:37;14.45;;;13.65;;
33206;SDS011;19565;46.602;11.534;2024-01-30T00:05:05;13.30;;;12.60;;
33206;SDS011;19565;46.602;11.534;2024-01-30T00:07:33;15.43;;;13.13;;
33206;SDS011;19565;46.602;11.534;2024-01-30T00:10:02;14.60;;;13.60;;
33206;SDS011;19565;46.602;11.534;2024-01-30T00:12:32;12.93;;;12.23;;
33206;SDS011;19565;46.602;11.534;2024-01-30T00:15:01;13.00;;;12.33;;
33206;SDS011;19565;46.602;11.534;2024-01-30T00:17:32;12.97;;;12.27;;
33206;SDS011;19565;46.602;11.534;2024-01-30T00:20:00;13.40;;;12.70;;
33206;SDS011;19565;46.602;11.534;2024-01-30T00:22:32;12.70;;;12.07;;
33206;SDS011;19565;46.602;11.534;2024-01-30T00:25:00;13.50;;;12.80;;
33206;SDS011;19565;46.602;11.534;2024-01-30T00:27:28;13.60;;;12.90;;
33206;SDS011;19565;46.602;11.534;2024-01-30T00:29:57;16.83;;;15.60;;
33206;SDS011;19565;46.602;11.534;2024-01-30T00:32:25;12.70;;;12.07;;
33206;SDS011;19565;46.602;11.534;2024-01-30T00:34:55;13.00;;;12.33;;
33206;SDS011;19565;46.602;11.534;2024-01-30T00:37:23;12.50;;;11.90;;
33206;SDS011;19565;46.602;11.534;2024-01-30T00:39:51;13.00;;;12.30;;
33206;SDS011;19565;46.602;11.534;2024-01-30T00:42:20;12.73;;;12.07;;
33206;SDS011;19565;46.602;11.534;2024-01-30T00:44:52;13.70;;;12.90;;
33206;SDS011;19565;46.602;11.534;2024-01-30T00:47:20;12.47;;;11.87;;
33206;SDS011;19565;46.602;11.534;2024-01-30T00:49:48;13.00;;;12.30;;
33206;SDS011;19565;46.602;11.534;2024-01-30T00:52:20;13.10;;;12.40;;
33206;SDS011;19565;46.602;11.534;2024-01-30T00:54:49;13.50;;;12.80;;
33206;SDS011;19565;46.602;11.534;2024-01-30T00:57:17;13.80;;;13.00;;
33206;SDS011;19565;46.602;11.534;2024-01-30T00:59:45;12.90;;;12.20;;
33206;SDS011;19565;46.602;11.534;2024-01-30T01:02:13;14.50;;;13.60;;
33206;SDS011;19565;46.602;11.534;2024-01-30T01:04:43;12.30;;;11.70;;
33206;SDS011;19565;46.602;11.534;2024-01-30T01:07:12;12.50;;;11.90;;
33206;SDS011;19565;46.602;11.534;2024-01-30T01:09:41;22.23;;;21.13;;
33206;SDS011;19565;46.602;11.534;2024-01-30T01:12:10;21.30;;;20.30;;
33206;SDS011;19565;46.602;11.534;2024-01-30T01:14:38;22.30;;;21.30;;
33206;SDS011;19565;46.602;11.534;2024-01-30T01:17:06;23.40;;;22.20;;
33206;SDS011;19565;46.602;11.534;2024-01-30T01:19:33;22.93;;;21.93;;
33206;SDS011;19565;46.602;11.534;2024-01-30T01:22:02;22.97;;;21.97;;
33206;SDS011;19565;46.602;11.534;2024-01-30T01:24:30;23.00;;;22.00;;
33206;SDS011;19565;46.602;11.534;2024-01-30T01:27:00;23.87;;;22.57;;
33206;SDS011;19565;46.602;11.534;2024-01-30T01:29:28;23.30;;;22.20;;
33206;SDS011;19565;46.602;11.534;2024-01-30T01:31:57;22.83;;;21.83;;
33206;SDS011;19565;46.602;11.534;2024-01-30T01:34:25;23.13;;;22.13;;
33206;SDS011;19565;46.602;11.534;2024-01-30T01:36:56;22.77;;;21.77;;
33206;SDS011;19565;46.602;11.534;2024-01-30T01:39:24;23.40;;;22.40;;
33206;SDS011;19565;46.602;11.534;2024-01-30T01:41:52;23.73;;;22.40;;
33206;SDS011;19565;46.602;11.534;2024-01-30T01:44:22;22.60;;;21.60;;
33206;SDS011;19565;46.602;11.534;2024-01-30T01:46:50;23.67;;;22.63;;
33206;SDS011;19565;46.602;11.534;2024-01-30T01:49:19;28.07;;;26.77;;
33206;SDS011;19565;46.602;11.534;2024-01-30T01:51:50;12.80;;;12.10;;
33206;SDS011;19565;46.602;11.534;2024-01-30T01:54:21;13.03;;;12.33;;
33206;SDS011;19565;46.602;11.534;2024-01-30T01:56:50;12.80;;;12.10;;
33206;SDS011;19565;46.602;11.534;2024-01-30T01:59:19;12.93;;;12.23;;
33206;SDS011;19565;46.602;11.534;2024-01-30T02:01:49;13.97;;;13.23;;
33206;SDS011;19565;46.602;11.534;2024-01-30T02:04:20;13.20;;;12.50;;
33206;SDS011;19565;46.602;11.534;2024-01-30T02:06:49;13.00;;;12.30;;
33206;SDS011;19565;46.602;11.534;2024-01-30T02:09:17;13.73;;;13.03;;
33206;SDS011;19565;46.602;11.534;2024-01-30T02:11:46;13.27;;;12.57;;
33206;SDS011;19565;46.602;11.534;2024-01-30T02:14:14;12.90;;;12.20;;
33206;SDS011;19565;46.602;11.534;2024-01-30T02:16:42;13.20;;;12.50;;
33206;SDS011;19565;46.602;11.534;2024-01-30T02:19:12;12.80;;;12.10;;
33206;SDS011;19565;46.602;11.534;2024-01-30T02:21:41;13.00;;;12.30;;
33206;SDS011;19565;46.602;11.534;2024-01-30T02:24:10;14.90;;;14.00;;
33206;SDS011;19565;46.602;11.534;2024-01-30T02:26:38;13.00;;;12.30;;
33206;SDS011;19565;46.602;11.534;2024-01-30T02:29:07;13.20;;;12.50;;
33206;SDS011;19565;46.602;11.534;2024-01-30T02:31:35;12.70;;;12.00;;
33206;SDS011;19565;46.602;11.534;2024-01-30T02:34:04;12.53;;;11.90;;
33206;SDS011;19565;46.602;11.534;2024-01-30T02:36:32;12.93;;;12.23;;
33206;SDS011;19565;46.602;11.534;2024-01-30T02:39:02;14.43;;;13.63;;
33206;SDS011;19565;46.602;11.534;2024-01-30T02:41:31;12.57;;;11.97;;
33206;SDS011;19565;46.602;11.534;2024-01-30T02:43:59;14.80;;;14.00;;
33206;SDS011;19565;46.602;11.534;2024-01-30T02:46:28;12.53;;;11.87;;
33206;SDS011;19565;46.602;11.534;2024-01-30T02:48:56;12.30;;;11.70;;
33206;SDS011;19565;46.602;11.534;2024-01-30T02:51:24;13.17;;;12.47;;
33206;SDS011;19565;46.602;11.534;2024-01-30T02:53:53;22.17;;;21.07;;
33206;SDS011;19565;46.602;11.534;2024-01-30T02:56:22;21.90;;;20.90;;
33206;SDS011;19565;46.602;11.534;2024-01-30T02:58:51;22.20;;;21.20;;
33206;SDS011;19565;46.602;11.534;2024-01-30T03:01:19;22.37;;;21.37;;
33206;SDS011;19565;46.602;11.534;2024-01-30T03:03:47;22.93;;;21.93;;
33206;SDS011;19565;46.602;11.534;2024-01-30T03:06:15;25.43;;;24.10;;
33206;SDS011;19565;46.602;11.534;2024-01-30T03:08:44;23.67;;;22.67;;
33206;SDS011;19565;46.602;11.534;2024-01-30T03:11:12;22.60;;;21.60;;
33206;SDS011;19565;46.602;11.534;2024-01-30T03:13:41;22.63;;;21.63;;
33206;SDS011;19565;46.602;11.534;2024-01-30T03:16:10;22.43;;;21.33;;
33206;SDS011;19565;46.602;11.534;2024-01-30T03:18:38;22.70;;;21.70;;
33206;SDS011;19565;46.602;11.534;2024-01-30T03:21:06;21.40;;;20.43;;
33206;SDS011;19565;46.602;11.534;2024-01-30T03:23:35;22.37;;;21.37;;
33206;SDS011;19565;46.602;11.534;2024-01-30T03:26:03;21.93;;;20.93;;
33206;SDS011;19565;46.602;11.534;2024-01-30T03:28:33;23.47;;;22.37;;
33206;SDS011;19565;46.602;11.534;2024-01-30T03:31:02;22.77;;;21.77;;
33206;SDS011;19565;46.602;11.534;2024-01-30T03:33:31;22.77;;;21.77;;
33206;SDS011;19565;46.602;11.534;2024-01-30T03:36:02;23.07;;;22.07;;
33206;SDS011;19565;46.602;11.534;2024-01-30T03:38:31;23.17;;;22.17;;
33206;SDS011;19565;46.602;11.534;2024-01-30T03:41:02;24.67;;;23.57;;
33206;SDS011;19565;46.602;11.534;2024-01-30T03:43:30;23.33;;;22.33;;
33206;SDS011;19565;46.602;11.534;2024-01-30T03:45:59;24.07;;;22.97;;
33206;SDS011;19565;46.602;11.534;2024-01-30T03:48:30;24.53;;;23.43;;
33206;SDS011;19565;46.602;11.534;2024-01-30T03:50:58;23.43;;;22.43;;
33206;SDS011;19565;46.602;11.534;2024-01-30T03:53:27;23.73;;;22.73;;
33206;SDS011;19565;46.602;11.534;2024-01-30T03:55:55;25.00;;;23.90;;
33206;SDS011;19565;46.602;11.534;2024-01-30T03:58:23;24.67;;;23.57;;
33206;SDS011;19565;46.602;11.534;2024-01-30T04:00:51;24.63;;;23.53;;
33206;SDS011;19565;46.602;11.534;2024-01-30T04:03:20;23.17;;;22.17;;
33206;SDS011;19565;46.602;11.534;2024-01-30T04:05:50;22.97;;;21.97;;
33206;SDS011;19565;46.602;11.534;2024-01-30T04:08:19;23.87;;;22.70;;
33206;SDS011;19565;46.602;11.534;2024-01-30T04:10:47;23.40;;;22.37;;
33206;SDS011;19565;46.602;11.534;2024-01-30T04:13:16;25.17;;;23.40;;
33206;SDS011;19565;46.602;11.534;2024-01-30T04:15:44;22.60;;;21.60;;
33206;SDS011;19565;46.602;11.534;2024-01-30T04:18:13;22.53;;;21.53;;
33206;SDS011;19565;46.602;11.534;2024-01-30T04:20:41;22.97;;;21.97;;
33206;SDS011;19565;46.602;11.534;2024-01-30T04:23:11;22.70;;;21.70;;
33206;SDS011;19565;46.602;11.534;2024-01-30T04:25:39;23.50;;;22.23;;
33206;SDS011;19565;46.602;11.534;2024-01-30T04:28:07;21.50;;;20.50;;
33206;SDS011;19565;46.602;11.534;2024-01-30T04:30:35;22.07;;;21.07;;
33206;SDS011;19565;46.602;11.534;2024-01-30T04:33:04;12.30;;;11.70;;
33206;SDS011;19565;46.602;11.534;2024-01-30T04:35:33;12.70;;;12.07;;
33206;SDS011;19565;46.602;11.534;2024-01-30T04:38:01;11.73;;;11.13;;
33206;SDS011;19565;46.602;11.534;2024-01-30T04:40:31;12.27;;;11.67;;
33206;SDS011;19565;46.602;11.534;2024-01-30T04:42:59;11.43;;;10.83;;
33206;SDS011;19565;46.602;11.534;2024-01-30T04:45:27;11.20;;;10.60;;
33206;SDS011;19565;46.602;11.534;2024-01-30T04:47:55;11.23;;;10.63;;
33206;SDS011;19565;46.602;11.534;2024-01-30T04:50:24;12.80;;;12.10;;
33206;SDS011;19565;46.602;11.534;2024-01-30T04:52:53;14.20;;;13.50;;
33206;SDS011;19565;46.602;11.534;2024-01-30T04:55:24;13.77;;;13.07;;
33206;SDS011;19565;46.602;11.534;2024-01-30T04:57:53;12.90;;;12.20;;
33206;SDS011;19565;46.602;11.534;2024-01-30T05:00:22;14.67;;;13.73;;
33206;SDS011;19565;46.602;11.534;2024-01-30T05:02:50;22.23;;;21.23;;
33206;SDS011;19565;46.602;11.534;2024-01-30T05:05:18;22.30;;;21.30;;
33206;SDS011;19565;46.602;11.534;2024-01-30T05:07:48;23.90;;;22.80;;
33206;SDS011;19565;46.602;11.534;2024-01-30T05:10:16;23.07;;;22.07;;
33206;SDS011;19565;46.602;11.534;2024-01-30T05:12:47;24.40;;;22.93;;
33206;SDS011;19565;46.602;11.534;2024-01-30T05:15:17;21.67;;;20.67;;
33206;SDS011;19565;46.602;11.534;2024-01-30T05:17:46;13.30;;;11.93;;
33206;SDS011;19565;46.602;11.534;2024-01-30T05:20:16;15.50;;;12.07;;
33206;SDS011;19565;46.602;11.534;2024-01-30T05:22:45;12.10;;;11.40;;
33206;SDS011;19565;46.602;11.534;2024-01-30T05:25:13;13.50;;;12.80;;
33206;SDS011;19565;46.602;11.534;2024-01-30T05:27:41;13.43;;;12.70;;
33206;SDS011;19565;46.602;11.534;2024-01-30T05:30:10;13.23;;;12.53;;
33206;SDS011;19565;46.602;11.534;2024-01-30T05:32:40;14.13;;;13.43;;
33206;SDS011;19565;46.602;11.534;2024-01-30T05:35:08;14.37;;;13.53;;
33206;SDS011;19565;46.602;11.534;2024-01-30T05:37:37;13.37;;;12.37;;
33206;SDS011;19565;46.602;11.534;2024-01-30T05:40:08;12.00;;;11.40;;
33206;SDS011;19565;46.602;11.534;2024-01-30T05:42:37;13.07;;;12.37;;
33206;SDS011;19565;46.602;11.534;2024-01-30T05:45:06;21.03;;;20.13;;
33206;SDS011;19565;46.602;11.534;2024-01-30T05:47:35;24.43;;;23.23;;
33206;SDS011;19565;46.602;11.534;2024-01-30T05:50:05;23.67;;;22.57;;
33206;SDS011;19565;46.602;11.534;2024-01-30T05:52:34;22.07;;;21.07;;
33206;SDS011;19565;46.602;11.534;2024-01-30T05:55:03;22.33;;;21.33;;
33206;SDS011;19565;46.602;11.534;2024-01-30T05:57:32;23.20;;;22.10;;
33206;SDS011;19565;46.602;11.534;2024-01-30T06:00:00;24.63;;;23.53;;
33206;SDS011;19565;46.602;11.534;2024-01-30T06:02:30;24.43;;;23.33;;
33206;SDS011;19565;46.602;11.534;2024-01-30T06:04:58;24.00;;;22.97;;
33206;SDS011;19565;46.602;11.534;2024-01-30T06:07:28;22.93;;;21.93;;
33206;SDS011;19565;46.602;11.534;2024-01-30T06:10:01;24.50;;;23.40;;
33206;SDS011;19565;46.602;11.534;2024-01-30T06:12:30;24.07;;;23.03;;
33206;SDS011;19565;46.602;11.534;2024-01-30T06:14:58;37.37;;;35.87;;
33206;SDS011;19565;46.602;11.534;2024-01-30T06:17:27;36.83;;;35.33;;
33206;SDS011;19565;46.602;11.534;2024-01-30T06:19:55;31.83;;;30.47;;
33206;SDS011;19565;46.602;11.534;2024-01-30T06:22:24;39.40;;;37.80;;
33206;SDS011;19565;46.602;11.534;2024-01-30T06:24:53;39.17;;;37.57;;
33206;SDS011;19565;46.602;11.534;2024-01-30T06:27:22;30.27;;;29.00;;
33206;SDS011;19565;46.602;11.534;2024-01-30T06:29:51;28.83;;;27.63;;
33206;SDS011;19565;46.602;11.534;2024-01-30T06:32:19;32.00;;;30.60;;
33206;SDS011;19565;46.602;11.534;2024-01-30T06:34:47;29.33;;;28.13;;
33206;SDS011;19565;46.602;11.534;2024-01-30T06:37:16;27.57;;;26.37;;
33206;SDS011;19565;46.602;11.534;2024-01-30T06:39:44;32.23;;;30.83;;
33206;SDS011;19565;46.602;11.534;2024-01-30T06:42:14;30.40;;;29.10;;
33206;SDS011;19565;46.602;11.534;2024-01-30T06:44:42;21.83;;;20.83;;
33206;SDS011;19565;46.602;11.534;2024-01-30T06:47:10;19.50;;;18.60;;
33206;SDS011;19565;46.602;11.534;2024-01-30T06:49:39;15.77;;;15.00;;
33206;SDS011;19565;46.602;11.534;2024-01-30T06:52:08;15.07;;;14.37;;
33206;SDS011;19565;46.602;11.534;2024-01-30T06:54:37;14.80;;;14.00;;
33206;SDS011;19565;46.602;11.534;2024-01-30T06:57:06;15.67;;;14.87;;
33206;SDS011;19565;46.602;11.534;2024-01-30T06:59:39;14.83;;;14.03;;
33206;SDS011;19565;46.602;11.534;2024-01-30T07:02:11;13.60;;;12.90;;
33206;SDS011;19565;46.602;11.534;2024-01-30T07:04:40;14.33;;;13.57;;
33206;SDS011;19565;46.602;11.534;2024-01-30T07:07:12;14.53;;;13.83;;
33206;SDS011;19565;46.602;11.534;2024-01-30T07:09:42;15.30;;;14.40;;
33206;SDS011;19565;46.602;11.534;2024-01-30T07:12:10;13.63;;;12.93;;
33206;SDS011;19565;46.602;11.534;2024-01-30T07:14:40;18.90;;;18.00;;
33206;SDS011;19565;46.602;11.534;2024-01-30T07:17:09;14.87;;;14.17;;
33206;SDS011;19565;46.602;11.534;2024-01-30T07:19:37;14.27;;;13.47;;
33206;SDS011;19565;46.602;11.534;2024-01-30T07:22:05;14.77;;;14.07;;
33206;SDS011;19565;46.602;11.534;2024-01-30T07:24:34;13.97;;;13.27;;
33206;SDS011;19565;46.602;11.534;2024-01-30T07:27:02;13.80;;;13.10;;
33206;SDS011;19565;46.602;11.534;2024-01-30T07:29:31;14.10;;;13.40;;
33206;SDS011;19565;46.602;11.534;2024-01-30T07:32:00;13.33;;;12.63;;
33206;SDS011;19565;46.602;11.534;2024-01-30T07:34:29;15.27;;;14.50;;
33206;SDS011;19565;46.602;11.534;2024-01-30T07:37:01;17.00;;;16.00;;
33206;SDS011;19565;46.602;11.534;2024-01-30T07:39:30;17.90;;;16.77;;
33206;SDS011;19565;46.602;11.534;2024-01-30T07:41:58;16.33;;;15.23;;
33206;SDS011;19565;46.602;11.534;2024-01-30T07:44:29;14.10;;;13.40;;
33206;SDS011;19565;46.602;11.534;2024-01-30T07:46:57;15.00;;;14.20;;
33206;SDS011;19565;46.602;11.534;2024-01-30T07:49:27;15.63;;;14.83;;
33206;SDS011;19565;46.602;11.534;2024-01-30T07:51:55;14.87;;;14.07;;
33206;SDS011;19565;46.602;11.534;2024-01-30T07:54:24;17.53;;;16.50;;
33206;SDS011;19565;46.602;11.534;2024-01-30T07:56:52;16.03;;;15.27;;
33206;SDS011;19565;46.602;11.534;2024-01-30T07:59:21;14.80;;;14.10;;
33206;SDS011;19565;46.602;11.534;2024-01-30T08:01:51;41.07;;;16.10;;
33206;SDS011;19565;46.602;11.534;2024-01-30T08:04:19;15.40;;;14.60;;
33206;SDS011;19565;46.602;11.534;2024-01-30T08:06:49;13.93;;;13.13;;
33206;SDS011;19565;46.602;11.534;2024-01-30T08:09:18;21.70;;;20.70;;
33206;SDS011;19565;46.602;11.534;2024-01-30T08:11:46;21.33;;;20.33;;
33206;SDS011;19565;46.602;11.534;2024-01-30T08:14:14;22.67;;;21.20;;
33206;SDS011;19565;46.602;11.534;2024-01-30T08:32:13;29.80;;;28.23;;
33206;SDS011;19565;46.602;11.534;2024-01-30T08:34:41;28.37;;;27.17;;
33206;SDS011;19565;46.602;11.534;2024-01-30T08:37:10;27.43;;;26.27;;
33206;SDS011;19565;46.602;11.534;2024-01-30T08:39:38;26.93;;;25.73;;
33206;SDS011;19565;46.602;11.534;2024-01-30T08:42:06;26.63;;;25.43;;
33206;SDS011;19565;46.602;11.534;2024-01-30T08:44:34;31.27;;;29.77;;
33206;SDS011;19565;46.602;11.534;2024-01-30T08:47:03;29.80;;;28.50;;
33206;SDS011;19565;46.602;11.534;2024-01-30T08:49:33;27.90;;;26.67;;
33206;SDS011;19565;46.602;11.534;2024-01-30T08:52:01;28.17;;;26.97;;
33206;SDS011;19565;46.602;11.534;2024-01-30T08:54:29;28.43;;;27.20;;
33206;SDS011;19565;46.602;11.534;2024-01-30T08:57:00;25.00;;;23.83;;
33206;SDS011;19565;46.602;11.534;2024-01-30T08:59:29;24.37;;;23.27;;
33206;SDS011;19565;46.602;11.534;2024-01-30T09:01:57;24.30;;;23.20;;
33206;SDS011;19565;46.602;11.534;2024-01-30T09:04:39;24.73;;;23.63;;
33206;SDS011;19565;46.602;11.534;2024-01-30T09:07:08;22.90;;;21.90;;
33206;SDS011;19565;46.602;11.534;2024-01-30T09:09:38;23.33;;;22.20;;
33206;SDS011;19565;46.602;11.534;2024-01-30T09:12:07;13.93;;;13.23;;
33206;SDS011;19565;46.602;11.534;2024-01-30T09:14:38;14.83;;;14.13;;
33206;SDS011;19565;46.602;11.534;2024-01-30T09:17:07;13.63;;;12.93;;
33206;SDS011;19565;46.602;11.534;2024-01-30T09:19:36;15.23;;;14.33;;
33206;SDS011;19565;46.602;11.534;2024-01-30T09:22:06;23.07;;;22.07;;
33206;SDS011;19565;46.602;11.534;2024-01-30T09:24:34;23.53;;;22.43;;
33206;SDS011;19565;46.602;11.534;2024-01-30T09:27:02;23.10;;;22.10;;
33206;SDS011;19565;46.602;11.534;2024-01-30T09:29:31;25.07;;;23.87;;
33206;SDS011;19565;46.602;11.534;2024-01-30T09:32:00;21.63;;;20.63;;
33206;SDS011;19565;46.602;11.534;2024-01-30T09:34:28;22.97;;;21.97;;
33206;SDS011;19565;46.602;11.534;2024-01-30T09:36:57;22.87;;;21.87;;
33206;SDS011;19565;46.602;11.534;2024-01-30T09:39:27;24.67;;;23.50;;
33206;SDS011;19565;46.602;11.534;2024-01-30T09:41:58;23.30;;;22.30;;
33206;SDS011;19565;46.602;11.534;2024-01-30T09:44:30;22.53;;;21.43;;
33206;SDS011;19565;46.602;11.534;2024-01-30T09:46:59;24.08;;;23.00;;
33206;SDS011;19565;46.602;11.534;2024-01-30T09:49:31;25.98;;;24.38;;
33206;SDS011;19565;46.602;11.534;2024-01-30T09:52:00;24.47;;;23.37;;
33206;SDS011;19565;46.602;11.534;2024-01-30T09:54:31;24.87;;;23.57;;
33206;SDS011;19565;46.602;11.534;2024-01-30T09:57:02;24.37;;;23.03;;
33206;SDS011;19565;46.602;11.534;2024-01-30T09:59:31;22.83;;;21.83;;
33206;SDS011;19565;46.602;11.534;2024-01-30T10:01:59;24.33;;;22.23;;
33206;SDS011;19565;46.602;11.534;2024-01-30T10:04:30;22.80;;;21.70;;
33206;SDS011;19565;46.602;11.534;2024-01-30T10:07:00;24.23;;;23.13;;
33206;SDS011;19565;46.602;11.534;2024-01-30T10:09:33;25.57;;;24.07;;
33206;SDS011;19565;46.602;11.534;2024-01-30T10:12:02;22.83;;;21.83;;
33206;SDS011;19565;46.602;11.534;2024-01-30T10:14:31;24.93;;;23.83;;
33206;SDS011;19565;46.602;11.534;2024-01-30T10:17:01;22.77;;;21.77;;
33206;SDS011;19565;46.602;11.534;2024-01-30T10:19:42;22.43;;;21.43;;
33206;SDS011;19565;46.602;11.534;2024-01-30T10:22:11;21.17;;;20.17;;
33206;SDS011;19565;46.602;11.534;2024-01-30T10:24:40;21.53;;;20.53;;
33206;SDS011;19565;46.602;11.534;2024-01-30T10:27:09;22.63;;;21.63;;
33206;SDS011;19565;46.602;11.534;2024-01-30T10:29:37;21.53;;;20.53;;
33206;SDS011;19565;46.602;11.534;2024-01-30T10:32:06;22.47;;;21.20;;
33206;SDS011;19565;46.602;11.534;2024-01-30T10:34:34;22.33;;;21.33;;
33206;SDS011;19565;46.602;11.534;2024-01-30T10:37:06;22.40;;;21.37;;
33206;SDS011;19565;46.602;11.534;2024-01-30T10:39:41;25.27;;;24.17;;
33206;SDS011;19565;46.602;11.534;2024-01-30T10:42:11;21.77;;;20.77;;
33206;SDS011;19565;46.602;11.534;2024-01-30T10:44:43;21.50;;;20.40;;
33206;SDS011;19565;46.602;11.534;2024-01-30T10:47:17;21.53;;;20.53;;
33206;SDS011;19565;46.602;11.534;2024-01-30T10:49:54;23.43;;;22.43;;
33206;SDS011;19565;46.602;11.534;2024-01-30T10:52:23;23.17;;;21.43;;
33206;SDS011;19565;46.602;11.534;2024-01-30T10:54:55;22.20;;;21.20;;
33206;SDS011;19565;46.602;11.534;2024-01-30T10:57:24;20.60;;;19.63;;
33206;SDS011;19565;46.602;11.534;2024-01-30T10:59:54;20.90;;;20.00;;
33206;SDS011;19565;46.602;11.534;2024-01-30T11:02:24;21.37;;;20.47;;
33206;SDS011;19565;46.602;11.534;2024-01-30T11:04:57;22.27;;;21.27;;
33206;SDS011;19565;46.602;11.534;2024-01-30T11:07:27;22.77;;;21.77;;
33206;SDS011;19565;46.602;11.534;2024-01-30T11:10:01;21.93;;;20.93;;
33206;SDS011;19565;46.602;11.534;2024-01-30T11:12:31;24.17;;;23.07;;
33206;SDS011;19565;46.602;11.534;2024-01-30T11:15:04;23.00;;;22.00;;
33206;SDS011;19565;46.602;11.534;2024-01-30T11:17:44;23.30;;;22.30;;
33206;SDS011;19565;46.602;11.534;2024-01-30T11:20:19;21.27;;;20.37;;
33206;SDS011;19565;46.602;11.534;2024-01-30T11:22:50;21.43;;;20.43;;
33206;SDS011;19565;46.602;11.534;2024-01-30T11:25:21;25.97;;;24.87;;
33206;SDS011;19565;46.602;11.534;2024-01-30T11:27:51;24.80;;;23.70;;
33206;SDS011;19565;46.602;11.534;2024-01-30T11:30:21;23.80;;;22.80;;
33206;SDS011;19565;46.602;11.534;2024-01-30T11:33:03;20.47;;;19.57;;
33206;SDS011;19565;46.602;11.534;2024-01-30T11:35:34;23.10;;;22.10;;
33206;SDS011;19565;46.602;11.534;2024-01-30T11:38:03;22.20;;;21.20;;
33206;SDS011;19565;46.602;11.534;2024-01-30T11:40:34;22.80;;;21.80;;
33206;SDS011;19565;46.602;11.534;2024-01-30T11:43:05;20.30;;;19.40;;
33206;SDS011;19565;46.602;11.534;2024-01-30T11:45:34;24.57;;;23.47;;
33206;SDS011;19565;46.602;11.534;2024-01-30T11:48:04;22.60;;;21.60;;
33206;SDS011;19565;46.602;11.534;2024-01-30T11:50:34;20.90;;;19.70;;
33206;SDS011;19565;46.602;11.534;2024-01-30T11:53:05;21.60;;;20.60;;
33206;SDS011;19565;46.602;11.534;2024-01-30T11:55:35;19.30;;;18.40;;
33206;SDS011;19565;46.602;11.534;2024-01-30T11:58:04;22.90;;;21.80;;
33206;SDS011;19565;46.602;11.534;2024-01-30T12:00:33;23.90;;;22.90;;
33206;SDS011;19565;46.602;11.534;2024-01-30T12:03:02;26.47;;;25.37;;
33206;SDS011;19565;46.602;11.534;2024-01-30T12:05:33;27.70;;;26.50;;
33206;SDS011;19565;46.602;11.534;2024-01-30T12:08:03;27.17;;;25.97;;
33206;SDS011;19565;46.602;11.534;2024-01-30T12:10:32;24.73;;;23.47;;
33206;SDS011;19565;46.602;11.534;2024-01-30T12:13:02;24.97;;;23.87;;
33206;SDS011;19565;46.602;11.534;2024-01-30T12:15:31;13.57;;;12.87;;
33206;SDS011;19565;46.602;11.534;2024-01-30T12:18:06;13.63;;;12.93;;
33206;SDS011;19565;46.602;11.534;2024-01-30T12:20:35;13.13;;;12.43;;
33206;SDS011;19565;46.602;11.534;2024-01-30T12:23:03;15.03;;;14.33;;
33206;SDS011;19565;46.602;11.534;2024-01-30T12:25:32;13.47;;;12.77;;
33206;SDS011;19565;46.602;11.534;2024-01-30T12:28:02;15.50;;;14.70;;
33206;SDS011;19565;46.602;11.534;2024-01-30T12:30:31;13.03;;;12.33;;
33206;SDS011;19565;46.602;11.534;2024-01-30T12:32:59;12.27;;;11.67;;
33206;SDS011;19565;46.602;11.534;2024-01-30T12:35:28;10.80;;;10.20;;
33206;SDS011;19565;46.602;11.534;2024-01-30T12:37:59;10.33;;;9.73;;
33206;SDS011;19565;46.602;11.534;2024-01-30T12:40:27;10.70;;;10.10;;
33206;SDS011;19565;46.602;11.534;2024-01-30T12:42:56;9.93;;;9.40;;
33206;SDS011;19565;46.602;11.534;2024-01-30T12:45:26;12.13;;;11.53;;
33206;SDS011;19565;46.602;11.534;2024-01-30T12:47:54;11.53;;;10.93;;
33206;SDS011;19565;46.602;11.534;2024-01-30T12:50:23;12.40;;;11.80;;
33206;SDS011;19565;46.602;11.534;2024-01-30T12:52:51;10.57;;;9.87;;
33206;SDS011;19565;46.602;11.534;2024-01-30T12:55:19;10.90;;;10.30;;
33206;SDS011;19565;46.602;11.534;2024-01-30T12:57:47;10.37;;;9.77;;
33206;SDS011;19565;46.602;11.534;2024-01-30T13:00:16;9.77;;;9.27;;
33206;SDS011;19565;46.602;11.534;2024-01-30T13:02:46;10.87;;;10.27;;
33206;SDS011;19565;46.602;11.534;2024-01-30T13:05:15;12.40;;;11.80;;
33206;SDS011;19565;46.602;11.534;2024-01-30T13:07:44;17.40;;;16.60;;
33206;SDS011;19565;46.602;11.534;2024-01-30T13:10:12;19.10;;;18.20;;
33206;SDS011;19565;46.602;11.534;2024-01-30T13:12:40;18.70;;;17.70;;
33206;SDS011;19565;46.602;11.534;2024-01-30T13:15:09;18.57;;;17.67;;
33206;SDS011;19565;46.602;11.534;2024-01-30T13:17:38;21.93;;;20.83;;
33206;SDS011;19565;46.602;11.534;2024-01-30T13:20:08;19.60;;;18.70;;
33206;SDS011;19565;46.602;11.534;2024-01-30T13:22:38;20.17;;;19.27;;
33206;SDS011;19565;46.602;11.534;2024-01-30T13:25:06;21.50;;;20.20;;
33206;SDS011;19565;46.602;11.534;2024-01-30T13:27:35;22.07;;;21.07;;
33206;SDS011;19565;46.602;11.534;2024-01-30T13:30:06;20.87;;;19.97;;
33206;SDS011;19565;46.602;11.534;2024-01-30T13:32:36;11.57;;;10.97;;
33206;SDS011;19565;46.602;11.534;2024-01-30T13:35:05;11.63;;;11.03;;
33206;SDS011;19565;46.602;11.534;2024-01-30T13:37:34;9.43;;;8.83;;
33206;SDS011;19565;46.602;11.534;2024-01-30T13:40:04;9.37;;;8.87;;
33206;SDS011;19565;46.602;11.534;2024-01-30T13:42:39;11.30;;;10.70;;
33206;SDS011;19565;46.602;11.534;2024-01-30T13:45:07;10.20;;;9.60;;
33206;SDS011;19565;46.602;11.534;2024-01-30T13:47:37;11.37;;;10.77;;
33206;SDS011;19565;46.602;11.534;2024-01-30T13:50:06;12.00;;;11.40;;
33206;SDS011;19565;46.602;11.534;2024-01-30T13:52:38;14.77;;;14.03;;
33206;SDS011;19565;46.602;11.534;2024-01-30T13:55:11;13.20;;;12.50;;
33206;SDS011;19565;46.602;11.534;2024-01-30T13:57:39;11.00;;;10.40;;
33206;SDS011;19565;46.602;11.534;2024-01-30T14:00:08;10.90;;;10.30;;
33206;SDS011;19565;46.602;11.534;2024-01-30T14:02:37;11.67;;;11.03;;
33206;SDS011;19565;46.602;11.534;2024-01-30T14:05:06;9.97;;;9.43;;
33206;SDS011;19565;46.602;11.534;2024-01-30T14:07:35;10.63;;;10.03;;
33206;SDS011;19565;46.602;11.534;2024-01-30T14:10:07;10.60;;;10.00;;
33206;SDS011;19565;46.602;11.534;2024-01-30T14:12:41;10.73;;;10.13;;
33206;SDS011;19565;46.602;11.534;2024-01-30T14:15:11;11.03;;;10.40;;
33206;SDS011;19565;46.602;11.534;2024-01-30T14:17:53;10.20;;;9.60;;
33206;SDS011;19565;46.602;11.534;2024-01-30T14:20:22;10.97;;;10.37;;
33206;SDS011;19565;46.602;11.534;2024-01-30T14:22:52;12.37;;;11.57;;
33206;SDS011;19565;46.602;11.534;2024-01-30T14:25:22;16.97;;;10.90;;
33206;SDS011;19565;46.602;11.534;2024-01-30T14:27:51;11.73;;;11.13;;
33206;SDS011;19565;46.602;11.534;2024-01-30T14:30:21;11.30;;;10.70;;
33206;SDS011;19565;46.602;11.534;2024-01-30T14:32:50;10.43;;;9.83;;
33206;SDS011;19565;46.602;11.534;2024-01-30T14:35:18;12.40;;;11.80;;